createdAt,value
2023-01-27T00:00:26.459Z,4.33
2023-01-27T00:01:58.646Z,4.30
2023-01-27T00:03:30.886Z,4.29
2023-01-27T00:05:04.147Z,4.30
2023-01-27T00:06:36.343Z,4.31
2023-01-27T00:08:08.404Z,4.30
2023-01-27T00:09:42.154Z,4.32
2023-01-27T00:11:32.674Z,4.34
2023-01-27T00:13:23.525Z,4.36
2023-01-27T00:14:55.553Z,4.35
2023-01-27T00:16:27.587Z,4.34
2023-01-27T00:17:59.903Z,4.32
2023-01-27T00:19:31.997Z,4.31
2023-01-27T00:21:22.735Z,4.31
2023-01-27T00:23:13.524Z,4.34
2023-01-27T00:24:45.888Z,4.32
2023-01-27T00:26:18.815Z,4.36
2023-01-27T00:27:50.750Z,4.38
2023-01-27T00:29:22.964Z,4.35
2023-01-27T00:30:55.129Z,4.36
2023-01-27T00:32:45.659Z,4.34
2023-01-27T00:34:17.800Z,4.35
2023-01-27T00:35:49.905Z,4.35
2023-01-27T00:37:22.219Z,4.37
2023-01-27T00:38:54.492Z,4.38
2023-01-27T00:40:26.670Z,4.36
2023-01-27T00:41:58.771Z,4.38
2023-01-27T00:43:30.924Z,4.39
2023-01-27T00:45:21.478Z,4.40
2023-01-27T00:46:53.651Z,4.38
2023-01-27T00:48:25.719Z,4.36
2023-01-27T00:49:57.886Z,4.36
2023-01-27T00:51:29.935Z,4.35
2023-01-27T00:53:05.683Z,4.34
2023-01-27T00:54:37.738Z,4.34
2023-01-27T00:56:10.014Z,4.33
2023-01-27T00:57:42.420Z,4.35
2023-01-27T00:59:14.633Z,4.34
2023-01-27T01:00:46.739Z,4.35
2023-01-27T01:03:11.430Z,4.38
2023-01-27T01:04:17.221Z,4.37
2023-01-27T01:05:51.754Z,4.36
2023-01-27T01:07:24.007Z,4.36
2023-01-27T01:08:58.907Z,4.36
2023-01-27T01:10:31.194Z,4.35
2023-01-27T01:12:06.542Z,4.37
2023-01-27T01:13:38.690Z,4.37
2023-01-27T01:15:11.525Z,4.39
2023-01-27T01:16:46.139Z,4.39
2023-01-27T01:18:21.107Z,4.42
2023-01-27T01:19:53.336Z,4.40
2023-01-27T01:21:25.685Z,4.39
2023-01-27T01:22:58.111Z,4.39
2023-01-27T01:24:37.852Z,4.41
2023-01-27T01:26:25.250Z,4.41
2023-01-27T01:28:07.648Z,4.41
2023-01-27T01:29:39.780Z,4.42
2023-01-27T01:31:19.223Z,4.41
2023-01-27T01:32:51.525Z,4.41
2023-01-27T01:34:23.733Z,4.41
2023-01-27T01:35:55.938Z,4.40
2023-01-27T01:37:32.565Z,4.41
2023-01-27T01:39:04.970Z,4.41
2023-01-27T01:40:43.408Z,4.38
2023-01-27T01:42:15.605Z,4.37
2023-01-27T01:43:50.234Z,4.39
2023-01-27T01:45:36.515Z,4.38
2023-01-27T01:47:15.745Z,4.37
2023-01-27T01:49:00.394Z,4.38
2023-01-27T01:50:34.196Z,4.39
2023-01-27T01:52:11.898Z,4.36
2023-01-27T01:54:03.465Z,4.36
2023-01-27T01:55:37.833Z,4.34
2023-01-27T01:57:23.456Z,4.32
2023-01-27T01:58:57.233Z,4.32
2023-01-27T02:00:29.357Z,4.31
2023-01-27T02:02:04.667Z,4.34
2023-01-27T02:03:38.800Z,4.36
2023-01-27T02:05:15.987Z,4.37
2023-01-27T02:06:56.342Z,4.37
2023-01-27T02:08:33.300Z,4.39
2023-01-27T02:10:08.024Z,4.39
2023-01-27T02:11:43.202Z,4.37
2023-01-27T02:13:15.362Z,4.35
2023-01-27T02:14:47.750Z,4.34
2023-01-27T02:16:19.971Z,4.38
2023-01-27T02:17:52.241Z,4.40
2023-01-27T02:19:50.442Z,4.42
2023-01-27T02:21:30.687Z,4.38
2023-01-27T02:23:16.078Z,4.36
2023-01-27T02:24:54.485Z,4.38
2023-01-27T02:26:31.494Z,4.39
2023-01-27T02:28:08.294Z,4.36
2023-01-27T02:29:40.673Z,4.38
2023-01-27T02:31:12.989Z,4.39
2023-01-27T02:32:45.247Z,4.37
2023-01-27T02:34:19.146Z,4.36
2023-01-27T02:36:10.457Z,4.36
2023-01-27T02:37:47.920Z,4.36
2023-01-27T02:39:22.870Z,4.32
2023-01-27T02:40:58.391Z,4.30
2023-01-27T02:42:30.674Z,4.30
2023-01-27T02:44:03.238Z,4.30
2023-01-27T02:45:39.542Z,4.30
2023-01-27T02:47:21.285Z,4.29
2023-01-27T02:48:53.787Z,4.30
2023-01-27T02:50:26.105Z,4.29
2023-01-27T02:51:58.220Z,4.30
2023-01-27T02:53:30.719Z,4.29
2023-01-27T02:55:03.748Z,4.28
2023-01-27T02:56:35.877Z,4.32
2023-01-27T02:58:08.457Z,4.29
2023-01-27T02:59:50.658Z,4.26
2023-01-27T03:01:24.577Z,4.26
2023-01-27T03:02:56.990Z,4.26
2023-01-27T03:04:33.501Z,4.25
2023-01-27T03:06:09.245Z,4.24
2023-01-27T03:07:42.263Z,4.24
2023-01-27T03:09:17.406Z,4.27
2023-01-27T03:10:53.701Z,4.25
2023-01-27T03:12:29.336Z,4.25
2023-01-27T03:14:06.743Z,4.24
2023-01-27T03:16:01.250Z,4.24
2023-01-27T03:17:54.240Z,4.25
2023-01-27T03:19:29.095Z,4.26
2023-01-27T03:21:05.098Z,4.23
2023-01-27T03:22:37.685Z,4.25
2023-01-27T03:24:10.064Z,4.26
2023-01-27T03:25:43.336Z,4.27
2023-01-27T03:27:15.364Z,4.26
2023-01-27T03:31:08.438Z,4.26
2023-01-27T03:32:54.661Z,4.24
2023-01-27T03:34:53.499Z,4.21
2023-01-27T03:36:53.458Z,4.20
2023-01-27T03:38:46.810Z,4.16
2023-01-27T03:40:37.706Z,4.16
2023-01-27T03:42:28.344Z,4.17
2023-01-27T03:44:22.282Z,4.17
2023-01-27T03:46:13.267Z,4.13
2023-01-27T03:47:45.550Z,4.12
2023-01-27T03:49:17.660Z,4.11
2023-01-27T03:50:53.441Z,4.09
2023-01-27T03:52:34.505Z,4.12
2023-01-27T03:54:07.032Z,4.11
2023-01-27T03:55:41.735Z,4.10
2023-01-27T03:57:14.138Z,4.09
2023-01-27T03:58:48.154Z,4.07
2023-01-27T04:00:21.520Z,4.08
2023-01-27T04:02:15.592Z,4.07
2023-01-27T04:04:06.888Z,4.07
2023-01-27T04:05:57.435Z,4.08
2023-01-27T04:07:29.497Z,4.08
2023-01-27T04:09:02.034Z,4.07
2023-01-27T04:10:34.081Z,4.06
2023-01-27T04:12:10.195Z,4.04
2023-01-27T04:13:42.376Z,4.04
2023-01-27T04:15:15.682Z,4.04
2023-01-27T04:16:48.360Z,4.02
2023-01-27T04:18:20.544Z,4.02
2023-01-27T04:19:52.733Z,4.04
2023-01-27T04:21:28.065Z,4.03
2023-01-27T04:23:00.387Z,4.02
2023-01-27T04:24:34.644Z,4.04
2023-01-27T04:26:09.103Z,4.05
2023-01-27T04:27:42.593Z,4.05
2023-01-27T04:29:18.271Z,4.04
2023-01-27T04:30:50.757Z,4.05
2023-01-27T04:32:32.408Z,4.05
2023-01-27T04:34:08.566Z,4.04
2023-01-27T04:35:47.789Z,4.00
2023-01-27T04:37:32.794Z,4.00
2023-01-27T04:39:18.653Z,4.02
2023-01-27T04:41:08.764Z,4.03
2023-01-27T04:43:03.719Z,4.02
2023-01-27T04:47:17.130Z,4.04
2023-01-27T04:48:49.164Z,4.03
2023-01-27T04:50:21.166Z,4.02
2023-01-27T04:51:55.892Z,4.02
2023-01-27T04:53:35.518Z,4.00
2023-01-27T04:55:08.075Z,4.02
2023-01-27T04:56:44.570Z,3.99
2023-01-27T04:58:33.556Z,3.97
2023-01-27T05:00:08.139Z,3.97
2023-01-27T05:01:41.663Z,3.98
2023-01-27T05:03:13.824Z,3.97
2023-01-27T05:04:45.972Z,3.96
2023-01-27T05:06:18.087Z,3.97
2023-01-27T05:07:50.160Z,3.98
2023-01-27T05:09:22.135Z,3.96
2023-01-27T05:10:54.345Z,3.96
2023-01-27T05:12:26.499Z,3.95
2023-01-27T05:13:58.516Z,3.94
2023-01-27T05:15:30.767Z,3.95
2023-01-27T05:17:04.096Z,3.93
2023-01-27T05:18:36.503Z,3.97
2023-01-27T05:20:09.624Z,3.98
2023-01-27T05:21:43.506Z,3.96
2023-01-27T05:23:34.052Z,3.94
2023-01-27T05:25:06.668Z,3.90
2023-01-27T05:26:41.369Z,3.88
2023-01-27T05:28:13.564Z,3.87
2023-01-27T05:29:45.704Z,3.83
2023-01-27T05:31:20.091Z,3.84
2023-01-27T05:32:52.180Z,3.82
2023-01-27T05:34:24.488Z,3.84
2023-01-27T05:35:59.406Z,3.80
2023-01-27T05:37:34.629Z,3.81
2023-01-27T05:39:08.919Z,3.84
2023-01-27T05:40:44.347Z,3.83
2023-01-27T05:42:16.599Z,3.84
2023-01-27T05:43:53.166Z,3.84
2023-01-27T05:45:28.721Z,3.84
2023-01-27T05:47:03.235Z,3.85
2023-01-27T05:48:43.066Z,3.85
2023-01-27T05:50:15.699Z,3.82
2023-01-27T05:51:47.798Z,3.84
2023-01-27T05:53:20.049Z,3.80
2023-01-27T05:54:52.321Z,3.82
2023-01-27T05:56:25.853Z,3.85
2023-01-27T05:57:58.140Z,3.86
2023-01-27T05:59:30.281Z,3.82
2023-01-27T06:01:12.461Z,3.79
2023-01-27T06:02:44.506Z,3.79
2023-01-27T06:04:17.179Z,3.78
2023-01-27T06:05:58.522Z,3.77
2023-01-27T06:07:30.727Z,3.78
2023-01-27T06:09:03.142Z,3.77
2023-01-27T06:10:37.526Z,3.80
2023-01-27T06:12:12.642Z,3.84
2023-01-27T06:13:45.211Z,3.83
2023-01-27T06:15:17.246Z,3.84
2023-01-27T06:16:50.006Z,3.83
2023-01-27T06:18:22.909Z,3.82
2023-01-27T06:19:55.084Z,3.83
2023-01-27T06:21:30.420Z,3.83
2023-01-27T06:23:02.703Z,3.84
2023-01-27T06:24:35.113Z,3.84
2023-01-27T06:26:16.529Z,3.85
2023-01-27T06:27:48.798Z,3.83
2023-01-27T06:29:22.372Z,3.83
2023-01-27T06:30:54.634Z,3.81
2023-01-27T06:32:27.120Z,3.83
2023-01-27T06:33:59.365Z,3.83
2023-01-27T06:35:32.460Z,3.84
2023-01-27T06:37:04.919Z,3.82
2023-01-27T06:38:37.810Z,3.82
2023-01-27T06:40:12.007Z,3.86
2023-01-27T06:41:51.036Z,3.85
2023-01-27T06:43:23.499Z,3.83
2023-01-27T06:44:56.289Z,3.86
2023-01-27T06:46:30.694Z,3.84
2023-01-27T06:48:02.912Z,3.86
2023-01-27T06:49:35.216Z,3.88
2023-01-27T06:51:14.224Z,3.88
2023-01-27T06:52:46.956Z,3.88
2023-01-27T06:54:19.109Z,3.89
2023-01-27T06:55:59.128Z,3.88
2023-01-27T06:57:31.471Z,3.89
2023-01-27T06:59:05.234Z,3.90
2023-01-27T07:00:38.099Z,3.89
2023-01-27T07:02:13.704Z,3.86
2023-01-27T07:03:45.874Z,3.89
2023-01-27T07:05:18.022Z,3.89
2023-01-27T07:06:50.425Z,3.91
2023-01-27T07:08:24.892Z,3.90
2023-01-27T07:09:57.178Z,3.90
2023-01-27T07:11:29.317Z,3.88
2023-01-27T07:13:09.526Z,3.90
2023-01-27T07:14:41.773Z,3.91
2023-01-27T07:16:14.101Z,3.92
2023-01-27T07:17:48.648Z,3.94
2023-01-27T07:19:21.014Z,3.94
2023-01-27T07:20:53.371Z,3.92
2023-01-27T07:22:25.550Z,3.95
2023-01-27T07:23:59.068Z,3.97
2023-01-27T07:25:32.841Z,3.96
2023-01-27T07:27:05.170Z,3.95
2023-01-27T07:28:37.397Z,3.99
2023-01-27T07:30:13.280Z,4.00
2023-01-27T07:31:45.713Z,4.02
2023-01-27T07:33:17.964Z,4.03
2023-01-27T07:34:51.335Z,4.02
2023-01-27T07:36:23.864Z,4.02
2023-01-27T07:37:57.934Z,4.03
2023-01-27T07:39:32.833Z,4.03
2023-01-27T07:41:06.446Z,4.01
2023-01-27T07:42:38.831Z,4.03
2023-01-27T07:44:11.306Z,4.03
2023-01-27T07:45:49.259Z,4.04
2023-01-27T07:47:22.170Z,4.02
2023-01-27T07:48:54.187Z,4.04
2023-01-27T07:50:26.919Z,4.03
2023-01-27T07:51:59.213Z,4.03
2023-01-27T07:53:31.439Z,4.02
2023-01-27T07:55:03.662Z,4.02
2023-01-27T07:56:38.478Z,4.04
2023-01-27T07:58:11.141Z,4.02
2023-01-27T07:59:43.391Z,4.03
2023-01-27T08:01:15.705Z,4.05
2023-01-27T08:02:54.673Z,4.09
2023-01-27T08:04:27.056Z,4.06
2023-01-27T08:05:59.224Z,4.06
2023-01-27T08:07:33.959Z,4.05
2023-01-27T08:09:06.523Z,4.08
2023-01-27T08:10:38.679Z,4.08
2023-01-27T08:12:11.047Z,4.07
2023-01-27T08:13:43.561Z,4.08
2023-01-27T08:15:18.899Z,4.13
2023-01-27T08:16:51.455Z,4.14
2023-01-27T08:18:23.900Z,4.13
2023-01-27T08:19:56.127Z,4.11
2023-01-27T08:21:33.214Z,4.13
2023-01-27T08:23:05.483Z,4.16
2023-01-27T08:24:38.481Z,4.17
2023-01-27T08:26:11.370Z,4.18
2023-01-27T08:27:51.110Z,4.15
2023-01-27T08:29:23.268Z,4.17
2023-01-27T08:30:55.659Z,4.19
2023-01-27T08:32:27.972Z,4.19
2023-01-27T08:34:00.371Z,4.18
2023-01-27T08:35:35.518Z,4.19
2023-01-27T08:37:08.150Z,4.19
2023-01-27T08:38:41.334Z,4.18
2023-01-27T08:40:14.182Z,4.19
2023-01-27T08:41:46.670Z,4.20
2023-01-27T08:43:22.915Z,4.19
2023-01-27T08:44:55.119Z,4.22
2023-01-27T08:46:29.532Z,4.24
2023-01-27T08:48:04.835Z,4.24
2023-01-27T08:49:37.090Z,4.23
2023-01-27T08:51:11.276Z,4.20
2023-01-27T08:52:43.603Z,4.22
2023-01-27T08:54:15.646Z,4.22
2023-01-27T08:55:48.324Z,4.21
2023-01-27T08:57:20.485Z,4.22
2023-01-27T08:58:52.843Z,4.22
2023-01-27T09:00:25.162Z,4.19
2023-01-27T09:02:02.894Z,4.21
2023-01-27T09:03:37.935Z,4.23
2023-01-27T09:05:10.166Z,4.24
2023-01-27T09:06:42.551Z,4.25
2023-01-27T09:08:16.203Z,4.26
2023-01-27T09:09:49.657Z,4.29
2023-01-27T09:11:22.774Z,4.28
2023-01-27T09:12:55.270Z,4.27
2023-01-27T09:14:27.583Z,4.30
2023-01-27T09:16:01.404Z,4.31
2023-01-27T09:17:33.626Z,4.31
2023-01-27T09:19:06.200Z,4.33
2023-01-27T09:20:38.456Z,4.35
2023-01-27T09:22:10.603Z,4.35
2023-01-27T09:23:42.772Z,4.36
2023-01-27T09:25:16.672Z,4.34
2023-01-27T09:26:48.918Z,4.36
2023-01-27T09:28:21.000Z,4.37
2023-01-27T09:29:53.148Z,4.39
2023-01-27T09:31:25.382Z,4.41
2023-01-27T09:33:01.815Z,4.42
2023-01-27T09:34:34.039Z,4.41
2023-01-27T09:36:12.616Z,4.41
2023-01-27T09:37:55.838Z,4.40
2023-01-27T09:39:30.076Z,4.42
2023-01-27T09:41:27.055Z,4.43
2023-01-27T09:42:59.862Z,4.48
2023-01-27T09:44:56.743Z,4.43
2023-01-27T09:46:38.118Z,4.43
2023-01-27T09:48:22.060Z,4.47
2023-01-27T09:50:24.773Z,4.47
2023-01-27T09:52:05.392Z,4.47
2023-01-27T09:53:53.022Z,4.49
2023-01-27T09:56:05.629Z,4.53
2023-01-27T09:57:42.211Z,4.52
2023-01-27T09:59:21.219Z,4.53
2023-01-27T10:01:10.193Z,4.55
2023-01-27T10:03:00.682Z,4.55
2023-01-27T10:04:44.715Z,4.54
2023-01-27T10:06:41.969Z,4.53
2023-01-27T10:08:43.448Z,4.56
2023-01-27T10:10:28.581Z,4.58
2023-01-27T10:12:20.823Z,4.60
2023-01-27T10:14:09.711Z,4.64
2023-01-27T10:16:01.735Z,4.64
2023-01-27T10:17:52.084Z,4.65
2023-01-27T10:19:30.054Z,4.69
2023-01-27T10:21:20.406Z,4.70
2023-01-27T10:23:15.789Z,4.69
2023-01-27T10:25:10.958Z,4.71
2023-01-27T10:26:49.995Z,4.71
2023-01-27T10:28:24.015Z,4.73
2023-01-27T10:30:11.354Z,4.70
2023-01-27T10:32:00.314Z,4.72
2023-01-27T10:33:34.927Z,4.71
2023-01-27T10:35:21.257Z,4.71
2023-01-27T10:37:11.267Z,4.70
2023-01-27T10:39:05.044Z,4.72
2023-01-27T10:40:52.328Z,4.76
2023-01-27T10:42:36.231Z,4.76
2023-01-27T10:44:13.983Z,4.73
2023-01-27T10:46:24.073Z,4.74
2023-01-27T10:48:28.040Z,4.77
2023-01-27T10:50:38.657Z,4.80
2023-01-27T10:52:15.242Z,4.79
2023-01-27T10:54:19.046Z,4.83
2023-01-27T10:56:30.273Z,4.83
2023-01-27T10:58:25.902Z,4.83
2023-01-27T11:02:24.688Z,4.87
2023-01-27T11:04:19.170Z,4.88
2023-01-27T11:05:58.552Z,4.90
2023-01-27T11:07:32.585Z,4.89
2023-01-27T11:09:22.962Z,4.88
2023-01-27T11:11:17.119Z,4.88
2023-01-27T11:12:52.076Z,4.91
2023-01-27T11:14:37.906Z,4.91
2023-01-27T11:16:18.755Z,4.91
2023-01-27T11:18:14.009Z,4.91
2023-01-27T11:20:01.016Z,4.92
2023-01-27T11:21:33.419Z,4.93
2023-01-27T11:23:46.940Z,4.96
2023-01-27T11:25:30.062Z,4.96
2023-01-27T11:27:22.289Z,4.98
2023-01-27T11:29:11.620Z,5.01
2023-01-27T11:30:51.806Z,5.00
2023-01-27T11:32:51.521Z,5.00
2023-01-27T11:34:41.577Z,5.04
2023-01-27T11:36:14.069Z,5.03
2023-01-27T11:37:48.556Z,5.05
2023-01-27T11:39:20.764Z,5.08
2023-01-27T11:40:53.548Z,5.11
2023-01-27T11:42:30.618Z,5.11
2023-01-27T11:44:06.241Z,5.10
2023-01-27T11:45:39.217Z,5.11
2023-01-27T11:47:15.919Z,5.16
2023-01-27T11:48:52.725Z,5.15
2023-01-27T11:50:32.514Z,5.14
2023-01-27T11:52:17.190Z,5.13
2023-01-27T11:53:58.397Z,5.15
2023-01-27T11:55:36.609Z,5.14
2023-01-27T11:57:18.612Z,5.13
2023-01-27T11:59:22.434Z,5.15
2023-01-27T12:01:00.335Z,5.19
2023-01-27T12:02:39.093Z,5.19
2023-01-27T12:04:38.629Z,5.17
2023-01-27T12:06:18.180Z,5.14
2023-01-27T12:07:54.748Z,5.14
2023-01-27T12:09:37.492Z,5.14
2023-01-27T12:11:29.243Z,5.16
2023-01-27T12:13:15.591Z,5.14
2023-01-27T12:14:58.139Z,5.14
2023-01-27T12:16:45.867Z,5.14
2023-01-27T12:18:18.127Z,5.17
2023-01-27T12:19:50.520Z,5.17
2023-01-27T12:21:35.246Z,5.19
2023-01-27T12:23:16.671Z,5.19
2023-01-27T12:24:50.431Z,5.17
2023-01-27T12:26:49.008Z,5.17
2023-01-27T12:28:54.231Z,5.18
2023-01-27T12:30:32.766Z,5.18
2023-01-27T12:32:15.128Z,5.16
2023-01-27T12:33:56.350Z,5.18
2023-01-27T12:35:34.873Z,5.17
2023-01-27T12:37:08.074Z,5.18
2023-01-27T12:38:46.142Z,5.18
2023-01-27T12:40:25.476Z,5.17
2023-01-27T12:41:58.093Z,5.19
2023-01-27T12:43:30.346Z,5.20
2023-01-27T12:45:21.857Z,5.20
2023-01-27T12:47:03.771Z,5.22
2023-01-27T12:48:46.396Z,5.20
2023-01-27T12:50:22.220Z,5.21
2023-01-27T12:51:55.551Z,5.19
2023-01-27T12:53:28.292Z,5.20
2023-01-27T12:55:03.152Z,5.20
2023-01-27T12:56:35.406Z,5.24
2023-01-27T12:58:23.751Z,5.23
2023-01-27T12:59:57.456Z,5.27
2023-01-27T13:01:35.219Z,5.30
2023-01-27T13:03:12.016Z,5.27
2023-01-27T13:04:44.464Z,5.31
2023-01-27T13:06:17.546Z,5.32
2023-01-27T13:07:52.986Z,5.30
2023-01-27T13:09:28.473Z,5.32
2023-01-27T13:11:02.750Z,5.33
2023-01-27T13:12:48.323Z,5.35
2023-01-27T13:14:20.467Z,5.36
2023-01-27T13:16:01.367Z,5.37
2023-01-27T13:17:50.840Z,5.35
2023-01-27T13:19:31.311Z,5.39
2023-01-27T13:21:18.579Z,5.38
2023-01-27T13:22:55.032Z,5.41
2023-01-27T13:24:42.326Z,5.42
2023-01-27T13:26:21.691Z,5.40
2023-01-27T13:27:55.791Z,5.39
2023-01-27T13:29:32.199Z,5.41
2023-01-27T13:31:10.050Z,5.44
2023-01-27T13:32:44.207Z,5.42
2023-01-27T13:34:36.552Z,5.38
2023-01-27T13:36:30.013Z,5.37
2023-01-27T13:38:17.802Z,5.34
2023-01-27T13:39:55.579Z,5.35
2023-01-27T13:41:48.018Z,5.34
2023-01-27T13:43:41.678Z,5.35
2023-01-27T13:45:28.481Z,5.34
2023-01-27T13:47:05.003Z,5.32
2023-01-27T13:48:51.489Z,5.35
2023-01-27T13:50:39.779Z,5.39
2023-01-27T13:52:12.077Z,5.39
2023-01-27T13:53:47.330Z,5.39
2023-01-27T13:55:27.249Z,5.41
2023-01-27T13:57:18.613Z,5.38
2023-01-27T13:59:24.385Z,5.39
2023-01-27T14:01:12.463Z,5.41
2023-01-27T14:03:17.486Z,5.43
2023-01-27T14:05:26.828Z,5.41
2023-01-27T14:07:23.515Z,5.38
2023-01-27T14:09:32.219Z,5.37
2023-01-27T14:11:12.986Z,5.37
2023-01-27T14:12:51.012Z,5.37
2023-01-27T14:14:56.181Z,5.34
2023-01-27T14:16:39.057Z,5.33
2023-01-27T14:18:24.792Z,5.34
2023-01-27T14:20:05.238Z,5.33
2023-01-27T14:21:50.713Z,5.31
2023-01-27T14:24:01.245Z,5.34
2023-01-27T14:25:44.957Z,5.35
2023-01-27T14:27:21.880Z,5.36
2023-01-27T14:29:02.795Z,5.34
2023-01-27T14:30:45.301Z,5.33
2023-01-27T14:32:35.580Z,5.32
2023-01-27T14:34:26.037Z,5.34
2023-01-27T14:36:21.947Z,5.35
2023-01-27T14:38:08.848Z,5.33
2023-01-27T14:39:51.728Z,5.30
2023-01-27T14:41:46.518Z,5.32
2023-01-27T14:43:40.205Z,5.27
2023-01-27T14:45:25.848Z,5.28
2023-01-27T14:47:08.958Z,5.24
2023-01-27T14:49:09.916Z,5.22
2023-01-27T14:51:06.503Z,5.24
2023-01-27T14:53:06.889Z,5.21
2023-01-27T14:55:16.172Z,5.19
2023-01-27T14:56:57.214Z,5.19
2023-01-27T14:58:50.522Z,5.21
2023-01-27T15:00:59.999Z,5.19
2023-01-27T15:02:53.000Z,5.16
2023-01-27T15:04:30.994Z,5.14
2023-01-27T15:06:31.619Z,5.15
2023-01-27T15:08:16.822Z,5.15
2023-01-27T15:10:20.531Z,5.15
2023-01-27T15:12:01.174Z,5.13
2023-01-27T15:13:42.441Z,5.13
2023-01-27T15:15:51.562Z,5.11
2023-01-27T15:17:44.599Z,5.07
2023-01-27T15:19:25.611Z,5.08
2023-01-27T15:21:09.136Z,5.06
2023-01-27T15:23:04.442Z,5.04
2023-01-27T15:24:36.333Z,5.03
2023-01-27T15:26:09.596Z,5.03
2023-01-27T15:27:41.770Z,5.03
2023-01-27T15:29:15.000Z,5.05
2023-01-27T15:31:15.197Z,5.05
2023-01-27T15:32:47.378Z,5.03
2023-01-27T15:34:23.545Z,5.03
2023-01-27T15:36:19.964Z,5.03
2023-01-27T15:38:09.756Z,5.06
2023-01-27T15:40:07.847Z,5.04
2023-01-27T15:41:52.874Z,5.02
2023-01-27T15:43:25.752Z,4.97
2023-01-27T15:45:02.539Z,4.98
2023-01-27T15:46:36.827Z,4.97
2023-01-27T15:48:15.645Z,4.99
2023-01-27T15:49:59.363Z,4.99
2023-01-27T15:51:36.254Z,5.01
2023-01-27T15:53:29.410Z,4.98
2023-01-27T15:55:04.120Z,4.95
2023-01-27T15:56:45.013Z,4.97
2023-01-27T15:58:33.542Z,4.97
2023-01-27T16:00:25.506Z,4.94
2023-01-27T16:02:19.183Z,4.92
2023-01-27T16:03:53.197Z,4.91
2023-01-27T16:06:10.880Z,4.89
2023-01-27T16:07:42.963Z,4.87
2023-01-27T16:09:25.019Z,4.84
2023-01-27T16:11:37.875Z,4.86
2023-01-27T16:13:23.384Z,4.83
2023-01-27T16:15:02.044Z,4.86
2023-01-27T16:16:34.827Z,4.85
2023-01-27T16:18:06.828Z,4.85
2023-01-27T16:19:48.314Z,4.83
2023-01-27T16:21:34.587Z,4.87
2023-01-27T16:23:12.512Z,4.89
2023-01-27T16:24:57.063Z,4.86
2023-01-27T16:26:55.557Z,4.83
2023-01-27T16:28:31.280Z,4.81
2023-01-27T16:30:26.883Z,4.82
2023-01-27T16:32:05.382Z,4.81
2023-01-27T16:33:42.775Z,4.80
2023-01-27T16:35:19.781Z,4.78
2023-01-27T16:37:02.535Z,4.79
2023-01-27T16:38:39.598Z,4.78
2023-01-27T16:40:22.950Z,4.75
2023-01-27T16:41:55.746Z,4.78
2023-01-27T16:43:49.891Z,4.73
2023-01-27T16:45:25.375Z,4.72
2023-01-27T16:47:14.964Z,4.71
2023-01-27T16:48:49.280Z,4.74
2023-01-27T16:50:36.066Z,4.75
2023-01-27T16:52:17.772Z,4.72
2023-01-27T16:53:51.499Z,4.71
2023-01-27T16:55:23.501Z,4.71
2023-01-27T16:56:55.589Z,4.73
2023-01-27T16:58:39.886Z,4.71
2023-01-27T17:00:23.175Z,4.69
2023-01-27T17:02:00.801Z,4.70
2023-01-27T17:03:38.144Z,4.71
2023-01-27T17:05:15.889Z,4.73
2023-01-27T17:06:52.359Z,4.70
2023-01-27T17:08:26.276Z,4.68
2023-01-27T17:10:02.599Z,4.68
2023-01-27T17:11:35.887Z,4.70
2023-01-27T17:13:27.222Z,4.70
2023-01-27T17:15:01.021Z,4.69
2023-01-27T17:16:39.932Z,4.69
2023-01-27T17:18:12.082Z,4.67
2023-01-27T17:19:47.982Z,4.65
2023-01-27T17:21:47.293Z,4.64
2023-01-27T17:23:34.794Z,4.68
2023-01-27T17:25:15.691Z,4.68
2023-01-27T17:26:53.455Z,4.65
2023-01-27T17:28:31.839Z,4.64
2023-01-27T17:30:13.989Z,4.65
2023-01-27T17:31:46.369Z,4.66
2023-01-27T17:33:20.231Z,4.66
2023-01-27T17:34:55.141Z,4.64
2023-01-27T17:36:27.308Z,4.67
2023-01-27T17:38:05.341Z,4.68
2023-01-27T17:39:41.276Z,4.68
2023-01-27T17:41:38.358Z,4.68
2023-01-27T17:43:23.552Z,4.66
2023-01-27T17:44:55.706Z,4.67
2023-01-27T17:46:38.589Z,4.70
2023-01-27T17:48:11.296Z,4.69
2023-01-27T17:49:44.728Z,4.71
2023-01-27T17:51:20.368Z,4.68
2023-01-27T17:52:54.559Z,4.72
2023-01-27T17:54:41.707Z,4.73
2023-01-27T17:56:27.563Z,4.70
2023-01-27T17:58:11.090Z,4.67
2023-01-27T17:59:44.338Z,4.69
2023-01-27T18:01:17.562Z,4.66
2023-01-27T18:03:01.003Z,4.69
2023-01-27T18:04:34.695Z,4.69
2023-01-27T18:06:07.219Z,4.67
2023-01-27T18:07:39.350Z,4.66
2023-01-27T18:09:19.996Z,4.64
2023-01-27T18:10:52.320Z,4.64
2023-01-27T18:12:55.053Z,4.63
2023-01-27T18:14:30.524Z,4.64
2023-01-27T18:16:17.500Z,4.63
2023-01-27T18:18:03.848Z,4.63
2023-01-27T18:19:36.032Z,4.60
2023-01-27T18:21:28.459Z,4.62
2023-01-27T18:23:01.906Z,4.63
2023-01-27T18:24:34.298Z,4.62
2023-01-27T18:26:22.178Z,4.64
2023-01-27T18:27:56.333Z,4.66
2023-01-27T18:29:35.569Z,4.64
2023-01-27T18:31:17.710Z,4.65
2023-01-27T18:32:54.004Z,4.66
2023-01-27T18:34:33.032Z,4.67
2023-01-27T18:36:05.515Z,4.66
2023-01-27T18:37:39.664Z,4.67
2023-01-27T18:39:35.133Z,4.66
2023-01-27T18:41:11.686Z,4.62
2023-01-27T18:42:44.908Z,4.63
2023-01-27T18:44:26.979Z,4.62
2023-01-27T18:45:59.205Z,4.60
2023-01-27T18:47:34.909Z,4.55
2023-01-27T18:49:10.685Z,4.57
2023-01-27T18:50:46.776Z,4.56
2023-01-27T18:52:19.367Z,4.53
2023-01-27T18:53:51.588Z,4.53
2023-01-27T18:55:30.672Z,4.51
2023-01-27T18:57:06.258Z,4.50
2023-01-27T18:58:38.837Z,4.49
2023-01-27T19:00:14.985Z,4.51
2023-01-27T19:01:50.042Z,4.54
2023-01-27T19:03:26.911Z,4.55
2023-01-27T19:04:59.078Z,4.53
2023-01-27T19:06:31.128Z,4.54
2023-01-27T19:08:04.217Z,4.54
2023-01-27T19:09:36.459Z,4.50
2023-01-27T19:11:12.428Z,4.54
2023-01-27T19:12:44.875Z,4.50
2023-01-27T19:14:16.943Z,4.51
2023-01-27T19:15:53.949Z,4.53
2023-01-27T19:17:26.085Z,4.51
2023-01-27T19:19:02.151Z,4.50
2023-01-27T19:20:34.512Z,4.51
2023-01-27T19:22:13.953Z,4.52
2023-01-27T19:23:47.623Z,4.53
2023-01-27T19:25:20.092Z,4.51
2023-01-27T19:26:52.149Z,4.51
2023-01-27T19:28:30.654Z,4.50
2023-01-27T19:30:27.544Z,4.54
2023-01-27T19:31:59.662Z,4.49
2023-01-27T19:33:37.051Z,4.50
2023-01-27T19:35:09.614Z,4.47
2023-01-27T19:36:46.028Z,4.48
2023-01-27T19:38:18.301Z,4.46
2023-01-27T19:39:50.394Z,4.46
2023-01-27T19:41:22.565Z,4.47
2023-01-27T19:42:55.042Z,4.46
2023-01-27T19:44:27.216Z,4.44
2023-01-27T19:45:59.462Z,4.47
2023-01-27T19:47:31.775Z,4.46
2023-01-27T19:49:03.784Z,4.46
2023-01-27T19:50:35.828Z,4.43
2023-01-27T19:52:07.838Z,4.45
2023-01-27T19:53:39.962Z,4.44
2023-01-27T19:55:12.440Z,4.45
2023-01-27T19:56:45.024Z,4.46
2023-01-27T19:58:27.562Z,4.46
2023-01-27T19:59:59.872Z,4.43
2023-01-27T20:01:31.900Z,4.44
2023-01-27T20:03:04.693Z,4.40
2023-01-27T20:04:36.922Z,4.40
2023-01-27T20:06:22.157Z,4.39
2023-01-27T20:07:55.717Z,4.38
2023-01-27T20:09:27.808Z,4.39
2023-01-27T20:10:59.883Z,4.38
2023-01-27T20:12:31.998Z,4.39
2023-01-27T20:14:07.929Z,4.37
2023-01-27T20:15:43.514Z,4.36
2023-01-27T20:17:15.595Z,4.35
2023-01-27T20:18:48.549Z,4.36
2023-01-27T20:20:21.591Z,4.35
2023-01-27T20:21:56.015Z,4.32
2023-01-27T20:23:27.997Z,4.35
2023-01-27T20:25:00.144Z,4.36
2023-01-27T20:26:32.711Z,4.38
2023-01-27T20:28:04.894Z,4.35
2023-01-27T20:29:37.548Z,4.34
2023-01-27T20:31:13.676Z,4.32
2023-01-27T20:32:45.901Z,4.34
2023-01-27T20:34:17.922Z,4.36
2023-01-27T20:35:49.993Z,4.32
2023-01-27T20:37:22.155Z,4.33
2023-01-27T20:38:55.646Z,4.30
2023-01-27T20:40:29.115Z,4.31
2023-01-27T20:42:01.108Z,4.31
2023-01-27T20:43:35.612Z,4.32
2023-01-27T20:45:08.306Z,4.30
2023-01-27T20:46:40.315Z,4.30
2023-01-27T20:48:12.461Z,4.34
2023-01-27T20:49:46.882Z,4.34
2023-01-27T20:51:18.991Z,4.32
2023-01-27T20:52:51.168Z,4.33
2023-01-27T20:54:23.244Z,4.31
2023-01-27T20:55:55.827Z,4.30
2023-01-27T20:57:30.610Z,4.30
2023-01-27T20:59:02.654Z,4.31
2023-01-27T21:00:34.736Z,4.32
2023-01-27T21:02:06.734Z,4.32
2023-01-27T21:03:39.815Z,4.30
2023-01-27T21:05:13.165Z,4.33
2023-01-27T21:06:45.405Z,4.30
2023-01-27T21:08:17.373Z,4.32
2023-01-27T21:09:53.922Z,4.32
2023-01-27T21:11:26.041Z,4.33
2023-01-27T21:12:58.157Z,4.34
2023-01-27T21:14:30.183Z,4.29
2023-01-27T21:16:02.409Z,4.28
2023-01-27T21:17:34.769Z,4.27
2023-01-27T21:19:07.142Z,4.26
2023-01-27T21:20:39.170Z,4.26
2023-01-27T21:22:11.193Z,4.26
2023-01-27T21:23:43.194Z,4.26
2023-01-27T21:25:15.577Z,4.26
2023-01-27T21:26:47.822Z,4.27
2023-01-27T21:28:20.481Z,4.28
2023-01-27T21:29:53.051Z,4.30
2023-01-27T21:31:29.584Z,4.25
2023-01-27T21:33:01.612Z,4.27
2023-01-27T21:34:33.988Z,4.26
2023-01-27T21:36:10.335Z,4.27
2023-01-27T21:37:42.992Z,4.28
2023-01-27T21:39:16.467Z,4.26
2023-01-27T21:40:48.536Z,4.26
2023-01-27T21:42:42.323Z,4.28
2023-01-27T21:44:40.502Z,4.30
2023-01-27T21:46:12.830Z,4.27
2023-01-27T21:48:08.046Z,4.23
2023-01-27T21:49:59.870Z,4.23
2023-01-27T21:51:32.056Z,4.22
2023-01-27T21:53:09.754Z,4.23
2023-01-27T21:54:41.752Z,4.20
2023-01-27T21:56:13.869Z,4.20
2023-01-27T21:57:48.600Z,4.20
2023-01-27T21:59:20.656Z,4.20